Aeroporto :
LOGIN :

Iscrizione | Disclaimer

   EN    FR    IT 

 










Sommario :    VFR   VFR Marginale   IFR   IFR Intensivo   IFR Molto Intensivo
Visibilità : 
Base nubi : 
>= 8 km
>= 3000ft
5 / 8 km
1000 / 3000 ft
1500m / 5 km
500 / 1000 ft
800 / 1500m
200 / 500 ft
< 800m
< 200 ft
Simboli :   Temporali  Nebbia  Neve Forte  Precipitazioni Forti  Vento > 20 kt
SIGMETs :   Varie  Temporali  Ghiacco  Turbolenza  Onda orograficha  Ceneri Vulcaniche






- Altitudine del aeroporto : 1197 ft
- Codice IATA : SPM


ETAD - Spangdahlem Ab

ULTIMO METAR :
  • 220855Z AUTO 23010KT 9999 OVC006 15/14 A2993 RMK AO2 RAB11E30 SLP127 P0000 60002 T01530140 50001 $

METARs OBSOLETI :
  • 220830Z AUTO 22008KT 9999 OVC006 15/14 A2993 RMK AO2 RAB11E30 SLP127 $
  • 220811Z AUTO 22008KT 9999 -RA OVC006 15/14 A2993 RMK AO2 RAB11 SLP127 $
  • 220755Z AUTO 22007KT 9999 OVC006 14/13 A2993 RMK AO2 DZB15E17RAB17E36DZB36E37RAB37E38 SLP127 P0002 T01440134 $
  • 220738Z AUTO 21006KT 9999 OVC006 15/14 A2993 RMK AO2 DZB15E17RAB17E36DZB36E37RAB37E38 SLP127 $
  • 220730Z AUTO 21006KT 6000 -RA BR OVC006 14/13 A2993 RMK AO2 DZB15E17RAB17 SLP127 $
  • 220715Z AUTO 21006KT 9999 -DZ OVC006 14/13 A2993 RMK AO2 DZB15 SLP127 $
  • 220655Z AUTO 20007KT 9999 OVC006 14/13 A2993 RMK AO2 SLP127 T01410130 $
  • 220610Z AUTO 00000KT 8000 BR OVC006 13/12 A2993 RMK AO2 SLP127 $
  • 220555Z AUTO 00000KT 6000 BR OVC006 12/11 A2993 RMK AO2 SLP127 60002 T01220114 10124 20106 55002 $
  • 220540Z AUTO 09003KT 8000 BR OVC006 12/12 A2992 RMK AO2 SLP123 $
  • 220510Z AUTO 09003KT 6000 BR OVC007 12/11 A2992 RMK AO2 SLP123 $
  • 220455Z AUTO 00000KT 8000 BR OVC006 12/11 A2992 RMK AO2 DZE0357 SLP123 P0000 T01230114 $
  • 220357Z AUTO 00000KT 9000 BR OVC005 12/11 A2993 RMK AO2 DZE57 SLP126 $
  • 220351Z 00000KT 9000 -DZ OVC005 12/11 A2993 RMK AO2A RAB21E37DZB37 SLP125 $

TAF TAF ETAD
Valido dal 22 a 06 ore il 23 a 12 ore UTC


220600Z 2206/2312 20009KT 5000 -SHRA BR BKN006 QNH2992INS
BECMG 2208/2209 23010G15KT 9000 -SHRA BKN009 QNH2993INS
BECMG 2212/2213 22009KT 9000 -SHRA SCT006 BKN015 QNH2994INS
BECMG 2214/2215 25006KT 9999 NSW BKN020 QNH2995INS
BECMG 2300/2301 VRB06KT 9999 BKN014 QNH3004INS TX15/2214Z TN09/2304Z



MetMap, La meteo Aeronautica in un colpo d'occhio ! - Copyright ORBIFLY Dicembre 2007 - Disclaimer

ORBIFLY MET'MAP TEAM :

Programmazione e sviluppo : Alexandra Zaïnal
Concezione : Baudouin d'Aumeries
Supporto tecnico e logistico : Manuel Goepfert
Aiuto : Marc-Olivier Méhu
Aiuto per la traduzione : Arnaldo La Scala




FONTI E CREDITI :

   NOAA